sensor_id;sensor_type;location;lat;lon;timestamp;pressure;altitude;pressure_sealevel;temperature;humidity
55590;BME280;41452;42.780;23.116;2023-02-05T00:02:16;94300.88;;;-4.73;100.00
55590;BME280;41452;42.780;23.116;2023-02-05T00:04:41;94384.19;;;-4.30;100.00
55590;BME280;41452;42.780;23.116;2023-02-05T00:07:07;94381.47;;;-4.28;100.00
55590;BME280;41452;42.780;23.116;2023-02-05T00:09:32;94386.06;;;-4.32;100.00
55590;BME280;41452;42.780;23.116;2023-02-05T00:11:58;94386.34;;;-4.35;100.00
55590;BME280;41452;42.780;23.116;2023-02-05T00:14:24;94400.50;;;-4.31;100.00
55590;BME280;41452;42.780;23.116;2023-02-05T00:16:51;94397.00;;;-4.30;100.00
55590;BME280;41452;42.780;23.116;2023-02-05T00:19:16;94397.00;;;-4.40;100.00
55590;BME280;41452;42.780;23.116;2023-02-05T00:21:41;94395.69;;;-4.44;100.00
55590;BME280;41452;42.780;23.116;2023-02-05T00:24:08;94387.31;;;-4.46;100.00
55590;BME280;41452;42.780;23.116;2023-02-05T00:26:34;94397.94;;;-4.41;100.00
55590;BME280;41452;42.780;23.116;2023-02-05T00:28:59;94394.84;;;-4.44;100.00
55590;BME280;41452;42.780;23.116;2023-02-05T00:31:24;94381.41;;;-4.56;100.00
55590;BME280;41452;42.780;23.116;2023-02-05T00:33:50;94399.31;;;-4.46;100.00
55590;BME280;41452;42.780;23.116;2023-02-05T00:36:17;94407.66;;;-4.44;100.00
55590;BME280;41452;42.780;23.116;2023-02-05T00:38:44;94396.91;;;-4.57;100.00
55590;BME280;41452;42.780;23.116;2023-02-05T00:41:10;94405.00;;;-4.52;100.00
55590;BME280;41452;42.780;23.116;2023-02-05T00:43:35;94400.13;;;-4.55;100.00
55590;BME280;41452;42.780;23.116;2023-02-05T00:46:01;94409.72;;;-4.57;100.00
55590;BME280;41452;42.780;23.116;2023-02-05T00:48:26;94399.72;;;-4.61;100.00
55590;BME280;41452;42.780;23.116;2023-02-05T00:50:52;94395.56;;;-4.62;100.00
55590;BME280;41452;42.780;23.116;2023-02-05T00:53:22;94375.06;;;-4.81;100.00
55590;BME280;41452;42.780;23.116;2023-02-05T00:55:48;94406.09;;;-4.65;100.00
55590;BME280;41452;42.780;23.116;2023-02-05T00:58:14;94368.59;;;-4.95;100.00
55590;BME280;41452;42.780;23.116;2023-02-05T01:00:40;94415.38;;;-4.64;100.00
55590;BME280;41452;42.780;23.116;2023-02-05T01:03:05;94418.75;;;-4.63;100.00
55590;BME280;41452;42.780;23.116;2023-02-05T01:05:33;94372.94;;;-4.95;100.00
55590;BME280;41452;42.780;23.116;2023-02-05T01:07:58;94402.72;;;-4.75;100.00
55590;BME280;41452;42.780;23.116;2023-02-05T01:10:24;94386.94;;;-4.80;100.00
55590;BME280;41452;42.780;23.116;2023-02-05T01:12:50;94411.22;;;-4.65;100.00
55590;BME280;41452;42.780;23.116;2023-02-05T01:15:16;94411.88;;;-4.63;100.00
55590;BME280;41452;42.780;23.116;2023-02-05T01:17:41;94383.16;;;-4.76;100.00
55590;BME280;41452;42.780;23.116;2023-02-05T01:20:08;94408.78;;;-4.56;100.00
55590;BME280;41452;42.780;23.116;2023-02-05T01:22:34;94401.75;;;-4.64;100.00
55590;BME280;41452;42.780;23.116;2023-02-05T01:25:00;94408.25;;;-4.60;100.00
55590;BME280;41452;42.780;23.116;2023-02-05T01:27:25;94381.94;;;-4.82;100.00
55590;BME280;41452;42.780;23.116;2023-02-05T01:29:51;94411.72;;;-4.71;100.00
55590;BME280;41452;42.780;23.116;2023-02-05T01:32:17;94418.50;;;-4.80;100.00
55590;BME280;41452;42.780;23.116;2023-02-05T01:34:43;94410.94;;;-4.81;100.00
55590;BME280;41452;42.780;23.116;2023-02-05T01:37:08;94425.63;;;-4.83;100.00
55590;BME280;41452;42.780;23.116;2023-02-05T01:39:34;94376.41;;;-5.16;100.00
55590;BME280;41452;42.780;23.116;2023-02-05T01:42:02;94426.84;;;-4.87;100.00
55590;BME280;41452;42.780;23.116;2023-02-05T01:44:29;94420.91;;;-4.88;100.00
55590;BME280;41452;42.780;23.116;2023-02-05T01:46:54;94420.66;;;-4.85;100.00
55590;BME280;41452;42.780;23.116;2023-02-05T01:49:27;94427.13;;;-4.81;100.00
55590;BME280;41452;42.780;23.116;2023-02-05T01:51:55;94428.59;;;-4.88;100.00
55590;BME280;41452;42.780;23.116;2023-02-05T01:54:25;94398.25;;;-4.92;100.00
55590;BME280;41452;42.780;23.116;2023-02-05T01:56:58;94423.47;;;-4.88;100.00
55590;BME280;41452;42.780;23.116;2023-02-05T01:59:27;94425.25;;;-4.88;100.00
55590;BME280;41452;42.780;23.116;2023-02-05T02:01:53;94404.03;;;-5.10;100.00
55590;BME280;41452;42.780;23.116;2023-02-05T02:07:03;94432.22;;;-4.90;100.00
55590;BME280;41452;42.780;23.116;2023-02-05T02:09:29;94434.41;;;-4.95;100.00
55590;BME280;41452;42.780;23.116;2023-02-05T02:11:56;94418.47;;;-5.09;100.00
55590;BME280;41452;42.780;23.116;2023-02-05T02:14:23;94447.59;;;-4.90;100.00
55590;BME280;41452;42.780;23.116;2023-02-05T02:16:49;94456.09;;;-5.00;100.00
55590;BME280;41452;42.780;23.116;2023-02-05T02:19:26;94459.06;;;-5.04;100.00
55590;BME280;41452;42.780;23.116;2023-02-05T02:22:16;94461.50;;;-5.03;100.00
55590;BME280;41452;42.780;23.116;2023-02-05T02:27:48;94421.56;;;-5.15;100.00
55590;BME280;41452;42.780;23.116;2023-02-05T02:33:47;94449.19;;;-5.09;100.00
55590;BME280;41452;42.780;23.116;2023-02-05T02:36:34;94450.25;;;-5.21;100.00
55590;BME280;41452;42.780;23.116;2023-02-05T02:41:41;94452.75;;;-5.41;100.00
55590;BME280;41452;42.780;23.116;2023-02-05T02:44:13;94375.56;;;-5.86;100.00
55590;BME280;41452;42.780;23.116;2023-02-05T02:46:49;94464.63;;;-5.40;100.00
55590;BME280;41452;42.780;23.116;2023-02-05T02:49:22;94465.09;;;-5.56;100.00
55590;BME280;41452;42.780;23.116;2023-02-05T02:51:49;94472.09;;;-5.58;100.00
55590;BME280;41452;42.780;23.116;2023-02-05T02:54:17;94463.59;;;-5.58;100.00
55590;BME280;41452;42.780;23.116;2023-02-05T02:56:46;94465.06;;;-5.65;100.00
55590;BME280;41452;42.780;23.116;2023-02-05T02:59:17;94469.63;;;-5.69;100.00
55590;BME280;41452;42.780;23.116;2023-02-05T03:01:48;94467.06;;;-5.69;100.00
55590;BME280;41452;42.780;23.116;2023-02-05T03:04:18;94480.69;;;-5.68;100.00
55590;BME280;41452;42.780;23.116;2023-02-05T03:06:49;94463.94;;;-5.73;100.00
55590;BME280;41452;42.780;23.116;2023-02-05T03:09:20;94467.69;;;-5.77;100.00
55590;BME280;41452;42.780;23.116;2023-02-05T03:11:46;94479.38;;;-5.84;100.00
55590;BME280;41452;42.780;23.116;2023-02-05T03:14:12;94456.59;;;-5.87;100.00
55590;BME280;41452;42.780;23.116;2023-02-05T03:16:37;94473.50;;;-5.75;100.00
55590;BME280;41452;42.780;23.116;2023-02-05T03:19:03;94423.53;;;-6.09;100.00
55590;BME280;41452;42.780;23.116;2023-02-05T03:21:39;94443.03;;;-5.87;100.00
55590;BME280;41452;42.780;23.116;2023-02-05T03:24:07;94483.31;;;-5.80;100.00
55590;BME280;41452;42.780;23.116;2023-02-05T03:26:34;94484.94;;;-5.79;100.00
55590;BME280;41452;42.780;23.116;2023-02-05T03:29:04;94487.63;;;-5.80;100.00
55590;BME280;41452;42.780;23.116;2023-02-05T03:37:09;94486.88;;;-5.92;100.00
55590;BME280;41452;42.780;23.116;2023-02-05T03:45:20;94437.75;;;-6.17;100.00
55590;BME280;41452;42.780;23.116;2023-02-05T03:47:59;94501.28;;;-5.91;100.00
55590;BME280;41452;42.780;23.116;2023-02-05T03:50:36;94497.09;;;-5.92;100.00
55590;BME280;41452;42.780;23.116;2023-02-05T03:53:17;94499.41;;;-5.89;100.00
55590;BME280;41452;42.780;23.116;2023-02-05T03:55:55;94513.97;;;-5.89;100.00
55590;BME280;41452;42.780;23.116;2023-02-05T03:58:28;94481.97;;;-6.05;100.00
55590;BME280;41452;42.780;23.116;2023-02-05T04:00:54;94476.31;;;-6.08;100.00
55590;BME280;41452;42.780;23.116;2023-02-05T04:03:20;94513.41;;;-5.93;100.00
55590;BME280;41452;42.780;23.116;2023-02-05T04:05:46;94503.81;;;-6.01;100.00
55590;BME280;41452;42.780;23.116;2023-02-05T04:08:12;94501.63;;;-6.05;100.00
55590;BME280;41452;42.780;23.116;2023-02-05T04:10:37;94461.38;;;-6.34;100.00
55590;BME280;41452;42.780;23.116;2023-02-05T04:13:03;94509.75;;;-6.00;100.00
55590;BME280;41452;42.780;23.116;2023-02-05T04:15:28;94516.03;;;-6.04;100.00
55590;BME280;41452;42.780;23.116;2023-02-05T04:17:53;94500.75;;;-6.16;100.00
55590;BME280;41452;42.780;23.116;2023-02-05T04:20:22;94517.66;;;-6.03;100.00
55590;BME280;41452;42.780;23.116;2023-02-05T04:22:47;94521.66;;;-6.10;100.00
55590;BME280;41452;42.780;23.116;2023-02-05T04:25:12;94514.34;;;-6.15;100.00
55590;BME280;41452;42.780;23.116;2023-02-05T04:27:38;94506.19;;;-6.09;100.00
55590;BME280;41452;42.780;23.116;2023-02-05T04:30:03;94516.31;;;-6.07;100.00
55590;BME280;41452;42.780;23.116;2023-02-05T04:32:31;94525.81;;;-6.09;100.00
55590;BME280;41452;42.780;23.116;2023-02-05T04:34:56;94540.69;;;-6.03;100.00
55590;BME280;41452;42.780;23.116;2023-02-05T04:37:21;94531.44;;;-6.16;100.00
55590;BME280;41452;42.780;23.116;2023-02-05T04:39:49;94539.16;;;-6.06;100.00
55590;BME280;41452;42.780;23.116;2023-02-05T04:42:14;94538.59;;;-6.09;100.00
55590;BME280;41452;42.780;23.116;2023-02-05T04:44:39;94506.06;;;-6.28;100.00
55590;BME280;41452;42.780;23.116;2023-02-05T04:47:05;94528.66;;;-6.13;100.00
55590;BME280;41452;42.780;23.116;2023-02-05T04:49:31;94542.66;;;-6.07;100.00
55590;BME280;41452;42.780;23.116;2023-02-05T04:51:57;94547.66;;;-6.05;100.00
55590;BME280;41452;42.780;23.116;2023-02-05T04:54:22;94549.84;;;-6.01;100.00
55590;BME280;41452;42.780;23.116;2023-02-05T04:56:48;94551.94;;;-6.06;100.00
55590;BME280;41452;42.780;23.116;2023-02-05T04:59:13;94553.69;;;-6.06;100.00
55590;BME280;41452;42.780;23.116;2023-02-05T05:01:39;94552.47;;;-6.12;100.00
55590;BME280;41452;42.780;23.116;2023-02-05T05:04:04;94557.56;;;-6.12;100.00
55590;BME280;41452;42.780;23.116;2023-02-05T05:06:30;94551.66;;;-6.13;100.00
55590;BME280;41452;42.780;23.116;2023-02-05T05:08:55;94512.94;;;-6.40;100.00
55590;BME280;41452;42.780;23.116;2023-02-05T05:11:21;94519.44;;;-6.36;100.00
55590;BME280;41452;42.780;23.116;2023-02-05T05:13:46;94476.88;;;-6.79;100.00
55590;BME280;41452;42.780;23.116;2023-02-05T05:16:14;94527.97;;;-6.47;100.00
55590;BME280;41452;42.780;23.116;2023-02-05T05:18:39;94559.34;;;-6.24;100.00
55590;BME280;41452;42.780;23.116;2023-02-05T05:21:06;94570.53;;;-6.25;100.00
55590;BME280;41452;42.780;23.116;2023-02-05T05:23:32;94553.38;;;-6.34;100.00
55590;BME280;41452;42.780;23.116;2023-02-05T05:25:58;94557.53;;;-6.33;100.00
55590;BME280;41452;42.780;23.116;2023-02-05T05:28:27;94571.91;;;-6.21;100.00
55590;BME280;41452;42.780;23.116;2023-02-05T05:30:52;94558.94;;;-6.40;100.00
55590;BME280;41452;42.780;23.116;2023-02-05T05:33:17;94584.84;;;-6.34;100.00
55590;BME280;41452;42.780;23.116;2023-02-05T05:35:44;94579.84;;;-6.35;100.00
55590;BME280;41452;42.780;23.116;2023-02-05T05:38:09;94582.16;;;-6.32;100.00
55590;BME280;41452;42.780;23.116;2023-02-05T05:40:35;94584.34;;;-6.27;100.00
55590;BME280;41452;42.780;23.116;2023-02-05T05:43:19;94597.41;;;-6.42;100.00
55590;BME280;41452;42.780;23.116;2023-02-05T05:46:04;94595.31;;;-6.37;100.00
55590;BME280;41452;42.780;23.116;2023-02-05T05:48:29;94602.63;;;-6.32;100.00
55590;BME280;41452;42.780;23.116;2023-02-05T05:50:55;94573.88;;;-6.57;100.00
55590;BME280;41452;42.780;23.116;2023-02-05T05:53:20;94599.38;;;-6.34;100.00
55590;BME280;41452;42.780;23.116;2023-02-05T05:55:46;94613.44;;;-6.40;100.00
55590;BME280;41452;42.780;23.116;2023-02-05T05:58:12;94612.72;;;-6.31;100.00
55590;BME280;41452;42.780;23.116;2023-02-05T06:00:39;94622.56;;;-6.26;100.00
55590;BME280;41452;42.780;23.116;2023-02-05T06:03:05;94628.25;;;-6.22;100.00
55590;BME280;41452;42.780;23.116;2023-02-05T06:05:31;94623.53;;;-6.27;100.00
55590;BME280;41452;42.780;23.116;2023-02-05T06:07:57;94615.72;;;-6.25;100.00
55590;BME280;41452;42.780;23.116;2023-02-05T06:10:23;94633.47;;;-6.13;100.00
55590;BME280;41452;42.780;23.116;2023-02-05T06:12:49;94638.00;;;-6.16;100.00
55590;BME280;41452;42.780;23.116;2023-02-05T06:15:17;94645.81;;;-6.18;100.00
55590;BME280;41452;42.780;23.116;2023-02-05T06:17:43;94652.53;;;-6.17;100.00
55590;BME280;41452;42.780;23.116;2023-02-05T06:20:09;94660.31;;;-6.18;100.00
55590;BME280;41452;42.780;23.116;2023-02-05T06:22:34;94657.44;;;-6.25;100.00
55590;BME280;41452;42.780;23.116;2023-02-05T06:25:00;94668.59;;;-6.26;100.00
55590;BME280;41452;42.780;23.116;2023-02-05T06:27:26;94664.88;;;-6.33;100.00
55590;BME280;41452;42.780;23.116;2023-02-05T06:29:52;94663.13;;;-6.33;100.00
55590;BME280;41452;42.780;23.116;2023-02-05T06:32:17;94672.16;;;-6.17;100.00
55590;BME280;41452;42.780;23.116;2023-02-05T06:34:42;94681.66;;;-6.08;100.00
55590;BME280;41452;42.780;23.116;2023-02-05T06:37:08;94684.34;;;-6.09;100.00
55590;BME280;41452;42.780;23.116;2023-02-05T06:39:34;94680.75;;;-6.18;100.00
55590;BME280;41452;42.780;23.116;2023-02-05T06:41:59;94670.78;;;-6.21;100.00
55590;BME280;41452;42.780;23.116;2023-02-05T06:44:25;94634.25;;;-6.44;100.00
55590;BME280;41452;42.780;23.116;2023-02-05T06:46:50;94696.44;;;-6.12;100.00
55590;BME280;41452;42.780;23.116;2023-02-05T06:49:15;94710.06;;;-6.11;100.00
55590;BME280;41452;42.780;23.116;2023-02-05T06:51:41;94679.97;;;-6.19;100.00
55590;BME280;41452;42.780;23.116;2023-02-05T06:54:06;94688.31;;;-6.17;100.00
55590;BME280;41452;42.780;23.116;2023-02-05T06:56:31;94701.09;;;-6.17;100.00
55590;BME280;41452;42.780;23.116;2023-02-05T06:58:57;94706.91;;;-6.03;100.00
55590;BME280;41452;42.780;23.116;2023-02-05T07:01:22;94723.03;;;-6.03;100.00
55590;BME280;41452;42.780;23.116;2023-02-05T07:03:48;94727.25;;;-6.02;100.00
55590;BME280;41452;42.780;23.116;2023-02-05T07:06:16;94727.25;;;-6.02;100.00
55590;BME280;41452;42.780;23.116;2023-02-05T07:08:42;94726.41;;;-6.02;100.00
55590;BME280;41452;42.780;23.116;2023-02-05T07:11:07;94718.31;;;-6.07;100.00
55590;BME280;41452;42.780;23.116;2023-02-05T07:13:32;94731.06;;;-5.96;100.00
55590;BME280;41452;42.780;23.116;2023-02-05T07:16:02;94734.53;;;-5.97;100.00
55590;BME280;41452;42.780;23.116;2023-02-05T07:18:27;94736.41;;;-5.99;100.00
55590;BME280;41452;42.780;23.116;2023-02-05T07:20:53;94744.19;;;-6.01;100.00
55590;BME280;41452;42.780;23.116;2023-02-05T07:23:18;94731.09;;;-6.07;100.00
55590;BME280;41452;42.780;23.116;2023-02-05T07:25:43;94746.03;;;-5.92;100.00
55590;BME280;41452;42.780;23.116;2023-02-05T07:28:09;94745.19;;;-5.92;100.00
55590;BME280;41452;42.780;23.116;2023-02-05T07:30:35;94751.44;;;-5.85;100.00
55590;BME280;41452;42.780;23.116;2023-02-05T07:33:00;94754.47;;;-5.80;100.00
55590;BME280;41452;42.780;23.116;2023-02-05T07:35:28;94709.69;;;-6.06;100.00
55590;BME280;41452;42.780;23.116;2023-02-05T07:37:54;94746.44;;;-5.75;100.00
55590;BME280;41452;42.780;23.116;2023-02-05T07:40:19;94754.47;;;-5.68;100.00
55590;BME280;41452;42.780;23.116;2023-02-05T07:42:44;94715.34;;;-5.92;100.00
55590;BME280;41452;42.780;23.116;2023-02-05T07:45:10;94732.94;;;-5.98;100.00
55590;BME280;41452;42.780;23.116;2023-02-05T07:47:35;94747.94;;;-5.73;100.00
55590;BME280;41452;42.780;23.116;2023-02-05T07:50:01;94749.69;;;-5.73;100.00
55590;BME280;41452;42.780;23.116;2023-02-05T07:52:26;94764.66;;;-5.57;100.00
55590;BME280;41452;42.780;23.116;2023-02-05T07:54:51;94754.47;;;-5.68;100.00
55590;BME280;41452;42.780;23.116;2023-02-05T07:57:17;94755.13;;;-5.66;100.00
55590;BME280;41452;42.780;23.116;2023-02-05T07:59:42;94776.03;;;-5.50;100.00
55590;BME280;41452;42.780;23.116;2023-02-05T08:02:11;94787.16;;;-5.40;100.00
55590;BME280;41452;42.780;23.116;2023-02-05T08:04:36;94768.34;;;-5.50;100.00
55590;BME280;41452;42.780;23.116;2023-02-05T08:07:01;94778.19;;;-5.34;100.00
55590;BME280;41452;42.780;23.116;2023-02-05T08:09:27;94764.47;;;-5.44;100.00
55590;BME280;41452;42.780;23.116;2023-02-05T08:11:52;94769.47;;;-5.43;100.00
55590;BME280;41452;42.780;23.116;2023-02-05T08:14:18;94792.34;;;-5.30;100.00
55590;BME280;41452;42.780;23.116;2023-02-05T08:16:44;94790.25;;;-5.25;100.00
55590;BME280;41452;42.780;23.116;2023-02-05T08:19:15;94799.69;;;-5.25;100.00
55590;BME280;41452;42.780;23.116;2023-02-05T08:21:42;94800.25;;;-5.22;100.00
55590;BME280;41452;42.780;23.116;2023-02-05T08:24:08;94792.78;;;-5.25;100.00
55590;BME280;41452;42.780;23.116;2023-02-05T08:26:33;94796.09;;;-5.34;100.00
55590;BME280;41452;42.780;23.116;2023-02-05T08:28:59;94800.44;;;-5.13;100.00
55590;BME280;41452;42.780;23.116;2023-02-05T08:31:24;94794.13;;;-5.09;100.00
55590;BME280;41452;42.780;23.116;2023-02-05T08:33:50;94813.69;;;-5.08;100.00
55590;BME280;41452;42.780;23.116;2023-02-05T08:36:19;94808.88;;;-5.02;100.00
55590;BME280;41452;42.780;23.116;2023-02-05T08:38:44;94812.13;;;-5.00;100.00
55590;BME280;41452;42.780;23.116;2023-02-05T08:41:10;94801.44;;;-5.05;100.00
55590;BME280;41452;42.780;23.116;2023-02-05T08:43:43;94775.56;;;-5.23;100.00
55590;BME280;41452;42.780;23.116;2023-02-05T08:46:10;94805.97;;;-4.97;100.00
55590;BME280;41452;42.780;23.116;2023-02-05T08:48:36;94808.06;;;-5.02;100.00
55590;BME280;41452;42.780;23.116;2023-02-05T08:51:02;94822.03;;;-5.06;100.00
55590;BME280;41452;42.780;23.116;2023-02-05T08:53:29;94814.75;;;-5.11;100.00
55590;BME280;41452;42.780;23.116;2023-02-05T08:55:59;94828.47;;;-5.12;100.00
55590;BME280;41452;42.780;23.116;2023-02-05T08:58:25;94790.19;;;-5.35;100.00
55590;BME280;41452;42.780;23.116;2023-02-05T09:00:51;94832.78;;;-5.12;100.00
55590;BME280;41452;42.780;23.116;2023-02-05T09:03:17;94838.03;;;-5.14;100.00
55590;BME280;41452;42.780;23.116;2023-02-05T09:05:43;94842.47;;;-5.16;100.00
55590;BME280;41452;42.780;23.116;2023-02-05T09:08:08;94838.41;;;-5.19;100.00
55590;BME280;41452;42.780;23.116;2023-02-05T09:10:34;94842.13;;;-5.11;100.00
55590;BME280;41452;42.780;23.116;2023-02-05T09:12:59;94839.47;;;-5.21;100.00
55590;BME280;41452;42.780;23.116;2023-02-05T09:15:25;94842.81;;;-5.09;100.00
55590;BME280;41452;42.780;23.116;2023-02-05T09:17:50;94835.16;;;-5.21;100.00
55590;BME280;41452;42.780;23.116;2023-02-05T09:20:16;94851.66;;;-5.13;100.00
55590;BME280;41452;42.780;23.116;2023-02-05T09:22:41;94848.09;;;-5.01;100.00
55590;BME280;41452;42.780;23.116;2023-02-05T09:25:07;94854.53;;;-5.07;100.00
55590;BME280;41452;42.780;23.116;2023-02-05T09:27:33;94858.75;;;-5.06;100.00
55590;BME280;41452;42.780;23.116;2023-02-05T09:29:59;94846.25;;;-4.99;100.00
55590;BME280;41452;42.780;23.116;2023-02-05T09:32:24;94851.81;;;-4.94;100.00
55590;BME280;41452;42.780;23.116;2023-02-05T09:34:49;94846.00;;;-4.96;100.00
55590;BME280;41452;42.780;23.116;2023-02-05T09:37:16;94866.13;;;-4.91;100.00
55590;BME280;41452;42.780;23.116;2023-02-05T09:39:41;94839.16;;;-5.07;100.00
55590;BME280;41452;42.780;23.116;2023-02-05T09:42:16;94854.31;;;-5.04;100.00
55590;BME280;41452;42.780;23.116;2023-02-05T09:47:39;94859.66;;;-5.07;100.00
55590;BME280;41452;42.780;23.116;2023-02-05T09:50:22;94870.72;;;-5.06;100.00
55590;BME280;41452;42.780;23.116;2023-02-05T09:53:02;94843.28;;;-5.16;100.00
55590;BME280;41452;42.780;23.116;2023-02-05T09:55:32;94859.44;;;-5.04;100.00
55590;BME280;41452;42.780;23.116;2023-02-05T09:58:04;94853.13;;;-5.00;100.00
55590;BME280;41452;42.780;23.116;2023-02-05T10:00:48;94858.56;;;-4.93;100.00
55590;BME280;41452;42.780;23.116;2023-02-05T10:08:41;94854.09;;;-4.80;100.00
55590;BME280;41452;42.780;23.116;2023-02-05T10:14:14;94850.19;;;-4.95;100.00
55590;BME280;41452;42.780;23.116;2023-02-05T10:19:26;94855.28;;;-4.63;100.00
55590;BME280;41452;42.780;23.116;2023-02-05T10:32:55;94846.53;;;-4.60;100.00
55590;BME280;41452;42.780;23.116;2023-02-05T10:35:43;94857.41;;;-4.68;100.00
55590;BME280;41452;42.780;23.116;2023-02-05T10:38:25;94857.03;;;-4.63;100.00
55590;BME280;41452;42.780;23.116;2023-02-05T10:40:57;94859.66;;;-4.53;100.00
55590;BME280;41452;42.780;23.116;2023-02-05T10:46:15;94837.53;;;-4.54;100.00
55590;BME280;41452;42.780;23.116;2023-02-05T10:51:16;94843.50;;;-4.44;99.69
55590;BME280;41452;42.780;23.116;2023-02-05T10:53:43;94848.59;;;-4.33;99.63
55590;BME280;41452;42.780;23.116;2023-02-05T10:56:15;94855.75;;;-4.27;98.59
55590;BME280;41452;42.780;23.116;2023-02-05T10:58:55;94849.81;;;-4.27;97.93
55590;BME280;41452;42.780;23.116;2023-02-05T11:01:21;94854.72;;;-4.24;98.80
55590;BME280;41452;42.780;23.116;2023-02-05T11:03:58;94816.25;;;-4.45;99.54
55590;BME280;41452;42.780;23.116;2023-02-05T11:06:26;94850.69;;;-4.17;98.54
55590;BME280;41452;42.780;23.116;2023-02-05T11:08:53;94851.00;;;-4.10;98.14
55590;BME280;41452;42.780;23.116;2023-02-05T11:11:25;94865.56;;;-4.11;96.25
55590;BME280;41452;42.780;23.116;2023-02-05T11:13:55;94838.22;;;-4.31;97.71
55590;BME280;41452;42.780;23.116;2023-02-05T11:16:22;94821.44;;;-4.35;97.81
55590;BME280;41452;42.780;23.116;2023-02-05T11:18:59;94856.94;;;-4.10;96.34
55590;BME280;41452;42.780;23.116;2023-02-05T11:21:45;94858.19;;;-4.04;96.00
55590;BME280;41452;42.780;23.116;2023-02-05T11:24:25;94851.84;;;-4.00;94.81
55590;BME280;41452;42.780;23.116;2023-02-05T11:29:41;94849.78;;;-3.75;91.86
55590;BME280;41452;42.780;23.116;2023-02-05T11:32:18;94843.59;;;-3.63;90.33
55590;BME280;41452;42.780;23.116;2023-02-05T11:34:44;94845.75;;;-3.68;89.58
55590;BME280;41452;42.780;23.116;2023-02-05T11:37:14;94846.22;;;-3.53;90.31
55590;BME280;41452;42.780;23.116;2023-02-05T11:39:41;94826.69;;;-3.75;89.96
55590;BME280;41452;42.780;23.116;2023-02-05T11:42:20;94813.28;;;-3.79;91.82
55590;BME280;41452;42.780;23.116;2023-02-05T11:44:52;94842.13;;;-3.66;93.29
55590;BME280;41452;42.780;23.116;2023-02-05T11:47:39;94850.31;;;-3.82;93.51
55590;BME280;41452;42.780;23.116;2023-02-05T11:50:20;94850.00;;;-3.88;94.36
55590;BME280;41452;42.780;23.116;2023-02-05T11:52:47;94813.16;;;-4.18;94.09
55590;BME280;41452;42.780;23.116;2023-02-05T11:55:30;94855.66;;;-4.46;94.05
55590;BME280;41452;42.780;23.116;2023-02-05T11:57:59;94852.28;;;-4.26;95.52
55590;BME280;41452;42.780;23.116;2023-02-05T12:00:25;94855.75;;;-4.27;94.65
55590;BME280;41452;42.780;23.116;2023-02-05T12:03:04;94850.34;;;-4.33;95.78
55590;BME280;41452;42.780;23.116;2023-02-05T12:05:34;94840.03;;;-4.43;95.55
55590;BME280;41452;42.780;23.116;2023-02-05T12:10:38;94850.97;;;-4.41;95.84
55590;BME280;41452;42.780;23.116;2023-02-05T12:22:31;94863.34;;;-4.25;94.42
55590;BME280;41452;42.780;23.116;2023-02-05T12:28:57;94864.84;;;-4.44;95.98
55590;BME280;41452;42.780;23.116;2023-02-05T13:02:43;94866.28;;;-4.72;94.46
55590;BME280;41452;42.780;23.116;2023-02-05T13:50:47;94885.78;;;-5.13;92.64
55590;BME280;41452;42.780;23.116;2023-02-05T15:26:51;94927.25;;;-5.76;94.22
55590;BME280;41452;42.780;23.116;2023-02-05T15:33:48;94922.50;;;-5.80;93.93
55590;BME280;41452;42.780;23.116;2023-02-05T15:37:42;94887.41;;;-6.01;94.63
55590;BME280;41452;42.780;23.116;2023-02-05T15:59:30;94932.13;;;-5.95;94.58
55590;BME280;41452;42.780;23.116;2023-02-05T16:39:43;94941.81;;;-5.99;93.54
55590;BME280;41452;42.780;23.116;2023-02-05T17:20:34;94938.06;;;-6.17;93.94
55590;BME280;41452;42.780;23.116;2023-02-05T18:58:18;94946.44;;;-6.62;97.67
55590;BME280;41452;42.780;23.116;2023-02-05T19:15:44;94953.31;;;-6.51;97.91
55590;BME280;41452;42.780;23.116;2023-02-05T20:24:09;94979.66;;;-6.62;95.96
55590;BME280;41452;42.780;23.116;2023-02-05T21:25:38;95001.66;;;-6.72;96.28
55590;BME280;41452;42.780;23.116;2023-02-05T21:35:19;95001.66;;;-6.72;96.51
55590;BME280;41452;42.780;23.116;2023-02-05T22:42:09;95033.81;;;-6.94;97.53
55590;BME280;41452;42.780;23.116;2023-02-05T23:36:14;95029.03;;;-6.98;100.00
